Bethel, Oklahoma
Current Conditions -  °F | °C
As of 9:55 AM on Thursday 30 Oct 2014 (Local Time) from K4O4 Reporting Station
Clear Clear  
Wind Chill: 13°   Ceiling: Unl
Heat Index: 13°   Visibility: 10mi
Dew Point:   Wind: 3mph
Humidity: 72%   Direction: 80°E
Pressure: 30.18"   Gusts: NA
Location:  34.36°N, 94.84°W
Report Text: K4O4 301455Z AUTO 08003KT 10SM CLR 13/08 A3018 RMK AO2
Loading
Personal Weather Stations






























Interactive Weather Map
Tropical Storm Tracking
New forecast layout! Learn more

10-Day Weather Forecast

Advertisements
Track Severe Weather on mobile